Time;durP1;ratioP1;P1;durP2;ratioP2;P2;SDS_P1;SDS_P2;PMS_P1;PMS_P2;Temp;Humidity;BMP_temperature;BMP_pressure;BME280_temperature;BME280_humidity;BME280_pressure;Samples;Min_cycle;Max_cycle;Signal;HPM_P1;HPM_P2
2022/04/09 00:01:31;;;;;;;18.42;12.15;;;1.10;99.90;;;;;;5053665;28;20056;-84
2022/04/09 00:03:58;;;;;;;18.70;12.05;;;1.10;99.90;;;;;;5053583;28;20098;-83
2022/04/09 00:06:25;;;;;;;18.88;11.85;;;1.10;99.90;;;;;;5053448;28;20146;-83
2022/04/09 00:08:52;;;;;;;20.85;12.13;;;1.20;99.90;;;;;;5052422;28;20055;-84
2022/04/09 00:11:18;;;;;;;16.50;10.95;;;1.20;99.90;;;;;;5052224;28;20420;-84
2022/04/09 00:13:45;;;;;;;20.70;11.98;;;1.20;99.90;;;;;;5053613;28;20068;-83
2022/04/09 00:16:12;;;;;;;18.27;12.05;;;1.20;99.90;;;;;;5053367;28;20159;-84
2022/04/09 00:18:43;;;;;;;16.98;11.73;;;1.20;99.90;;;;;;5052391;28;20087;-84
2022/04/09 00:21:10;;;;;;;20.35;12.50;;;1.10;99.90;;;;;;5052448;28;20110;-83
2022/04/09 00:23:37;;;;;;;19.50;11.38;;;1.10;99.90;;;;;;5052370;28;20045;-84
2022/04/09 00:26:04;;;;;;;15.70;10.63;;;1.20;99.90;;;;;;5053107;28;20386;-84
2022/04/09 00:28:31;;;;;;;19.05;10.95;;;1.30;99.90;;;;;;5052998;28;20095;-83
2022/04/09 00:30:58;;;;;;;13.50;10.32;;;1.30;99.90;;;;;;5053100;28;20489;-84
2022/04/09 00:33:24;;;;;;;14.52;10.02;;;1.30;99.90;;;;;;5052197;28;20460;-84
2022/04/09 00:35:51;;;;;;;14.82;10.18;;;1.30;99.90;;;;;;5051108;28;20127;-84
2022/04/09 00:38:18;;;;;;;18.50;11.13;;;1.30;99.90;;;;;;5053075;28;20127;-84
2022/04/09 00:40:44;;;;;;;11.93;9.25;;;1.30;99.90;;;;;;5053159;28;20124;-83
2022/04/09 00:43:11;;;;;;;12.23;9.48;;;1.30;99.90;;;;;;5053291;28;20123;-84
2022/04/09 00:45:38;;;;;;;13.57;9.80;;;1.40;99.90;;;;;;5051601;28;20103;-84
2022/04/09 00:48:07;;;;;;;13.73;9.18;;;1.40;99.90;;;;;;5052906;28;20051;-84
2022/04/09 00:50:34;;;;;;;10.48;8.90;;;1.40;99.90;;;;;;5052905;28;20142;-84
2022/04/09 00:53:01;;;;;;;10.43;7.82;;;1.40;99.90;;;;;;5052789;28;20047;-84
2022/04/09 00:58:15;;;;;;;9.05;6.95;;;1.40;99.90;;;;;;5052737;28;20052;-84
2022/04/09 01:00:42;;;;;;;8.85;6.72;;;1.40;99.90;;;;;;5052515;28;20453;-84
2022/04/09 01:03:11;;;;;;;10.07;8.05;;;1.40;99.90;;;;;;5052692;28;20409;-84
2022/04/09 01:05:41;;;;;;;8.05;6.90;;;1.40;99.90;;;;;;5051265;28;20080;-84
2022/04/09 01:08:08;;;;;;;7.68;6.80;;;1.40;99.90;;;;;;5052798;28;20436;-84
2022/04/09 01:10:36;;;;;;;8.85;6.82;;;1.40;99.90;;;;;;5052463;28;20094;-84
2022/04/09 01:13:03;;;;;;;7.22;6.25;;;1.40;99.90;;;;;;5052619;28;20119;-84
2022/04/09 01:15:30;;;;;;;8.75;7.25;;;1.40;99.90;;;;;;5051475;28;20048;-84
2022/04/09 01:18:00;;;;;;;9.25;7.22;;;1.40;99.90;;;;;;5052488;28;20092;-84
2022/04/09 01:20:28;;;;;;;8.13;6.80;;;1.40;99.90;;;;;;5051437;28;20088;-84
2022/04/09 01:22:55;;;;;;;9.52;6.30;;;1.40;99.90;;;;;;5051219;28;20127;-83
2022/04/09 01:25:22;;;;;;;6.53;5.93;;;1.40;99.90;;;;;;5051867;28;20127;-83
2022/04/09 01:27:49;;;;;;;8.77;5.70;;;1.40;99.90;;;;;;5052085;28;20080;-83
2022/04/09 01:30:17;;;;;;;6.40;5.40;;;1.40;99.90;;;;;;5051085;28;20288;-84
2022/04/09 01:32:45;;;;;;;5.60;5.10;;;1.40;99.90;;;;;;5084531;28;20477;-84
2022/04/09 01:35:12;;;;;;;6.60;5.22;;;1.40;99.90;;;;;;5050940;28;20477;-83
2022/04/09 01:37:39;;;;;;;7.60;5.63;;;1.40;99.90;;;;;;5052446;28;20075;-84
2022/04/09 01:40:07;;;;;;;6.10;5.47;;;1.40;99.90;;;;;;5084333;28;20092;-84
2022/04/09 01:42:33;;;;;;;11.00;6.25;;;1.40;99.90;;;;;;5052443;28;20521;-83
2022/04/09 01:45:00;;;;;;;7.20;5.53;;;1.40;99.90;;;;;;5052115;28;20091;-83
2022/04/09 01:47:27;;;;;;;5.40;4.90;;;1.50;99.90;;;;;;5086961;28;20128;-83
2022/04/09 01:49:54;;;;;;;8.13;5.65;;;1.40;99.90;;;;;;5056283;28;20057;-83
2022/04/09 01:52:21;;;;;;;8.90;5.90;;;1.50;99.90;;;;;;5056047;28;20052;-84
2022/04/09 01:54:48;;;;;;;8.93;7.20;;;1.40;99.90;;;;;;5054591;28;20075;-84
2022/04/09 01:57:15;;;;;;;12.52;8.27;;;1.40;99.90;;;;;;5052483;28;20129;-84
2022/04/09 01:59:44;;;;;;;10.95;7.53;;;1.40;99.90;;;;;;5056135;28;20102;-84
2022/04/09 02:02:11;;;;;;;10.75;7.88;;;1.40;99.90;;;;;;5054642;28;20226;-84
2022/04/09 02:04:38;;;;;;;11.48;8.30;;;1.30;99.90;;;;;;5055908;28;20099;-84
2022/04/09 02:07:04;;;;;;;10.95;8.63;;;1.40;99.90;;;;;;5088054;28;20520;-84
2022/04/09 02:09:31;;;;;;;12.73;9.15;;;1.30;99.90;;;;;;5087744;28;20044;-84
2022/04/09 02:11:59;;;;;;;15.82;9.23;;;1.40;99.90;;;;;;5055371;28;20053;-84
2022/04/09 02:14:26;;;;;;;12.18;9.38;;;1.20;99.90;;;;;;5054089;28;20048;-84
2022/04/09 02:16:53;;;;;;;15.07;9.90;;;1.30;99.90;;;;;;5054363;28;20136;-84
2022/04/09 02:19:19;;;;;;;10.85;8.27;;;1.20;99.90;;;;;;5055468;28;20456;-84
2022/04/09 02:21:46;;;;;;;14.40;8.00;;;1.30;99.90;;;;;;5054293;28;20055;-84
2022/04/09 02:24:13;;;;;;;11.60;7.45;;;1.30;99.90;;;;;;5055111;28;20144;-84
2022/04/09 02:26:40;;;;;;;7.68;6.03;;;1.30;99.90;;;;;;5055009;28;20851;-83
2022/04/09 02:29:07;;;;;;;9.40;7.03;;;1.40;99.90;;;;;;5087554;28;20159;-84
2022/04/09 02:31:34;;;;;;;14.05;8.23;;;1.40;99.90;;;;;;5087672;28;20124;-84
2022/04/09 02:34:01;;;;;;;14.52;8.30;;;1.40;99.90;;;;;;5087287;28;20072;-83
2022/04/09 02:36:29;;;;;;;13.35;8.88;;;1.40;99.90;;;;;;5055407;28;20053;-83
2022/04/09 02:38:56;;;;;;;13.05;8.80;;;1.40;99.90;;;;;;5087325;28;20073;-83
2022/04/09 02:41:22;;;;;;;14.32;9.50;;;1.40;99.90;;;;;;5053992;28;20476;-84
2022/04/09 02:43:49;;;;;;;19.08;10.70;;;1.40;99.90;;;;;;5055147;28;20136;-84
2022/04/09 02:46:16;;;;;;;17.08;10.30;;;1.40;99.90;;;;;;5053875;28;20063;-83
2022/04/09 02:48:44;;;;;;;21.08;11.95;;;1.40;99.90;;;;;;5053974;28;20088;-83
2022/04/09 02:51:12;;;;;;;21.75;11.85;;;1.40;99.90;;;;;;5054989;28;20053;-84
2022/04/09 02:53:39;;;;;;;21.92;13.30;;;1.50;99.90;;;;;;5053786;28;20106;-84
2022/04/09 02:56:06;;;;;;;26.80;14.98;;;1.50;99.90;;;;;;5053327;28;20092;-84
2022/04/09 02:58:33;;;;;;;31.50;16.20;;;1.50;99.90;;;;;;5054248;28;20052;-84
2022/04/09 03:00:59;;;;;;;31.65;16.05;;;1.50;99.90;;;;;;5053506;28;20045;-83
2022/04/09 03:03:26;;;;;;;31.75;16.13;;;1.40;99.90;;;;;;5053638;28;20147;-84
2022/04/09 03:05:53;;;;;;;38.22;18.20;;;1.50;99.90;;;;;;5053124;28;20132;-84
2022/04/09 03:08:20;;;;;;;33.65;18.20;;;1.50;99.90;;;;;;5086795;28;20095;-84
2022/04/09 03:10:46;;;;;;;31.95;17.20;;;1.50;99.90;;;;;;5054319;28;20134;-84
2022/04/09 03:13:13;;;;;;;37.45;19.38;;;1.40;99.90;;;;;;5053598;28;20077;-84
2022/04/09 03:15:41;;;;;;;34.72;19.77;;;1.40;99.90;;;;;;5054502;28;20045;-84
2022/04/09 03:18:10;;;;;;;42.83;20.85;;;1.40;99.90;;;;;;5054709;28;20420;-84
2022/04/09 03:20:38;;;;;;;37.38;19.52;;;1.40;99.90;;;;;;5053229;28;20087;-85
2022/04/09 03:23:05;;;;;;;40.15;19.90;;;1.40;99.90;;;;;;5052880;28;20088;-85
2022/04/09 03:25:31;;;;;;;41.92;20.65;;;1.50;99.90;;;;;;5054280;28;20111;-84
2022/04/09 03:27:58;;;;;;;40.05;21.15;;;1.50;99.90;;;;;;5053081;28;20091;-85
2022/04/09 03:30:25;;;;;;;46.63;21.60;;;1.50;99.90;;;;;;5054259;28;20051;-84
2022/04/09 03:32:52;;;;;;;50.97;24.17;;;1.50;99.90;;;;;;5053035;28;20560;-84
2022/04/09 03:35:19;;;;;;;45.97;21.92;;;1.50;99.90;;;;;;5053614;28;20080;-85
2022/04/09 03:37:46;;;;;;;58.50;25.40;;;1.50;99.90;;;;;;5053128;28;20059;-84
2022/04/09 03:40:13;;;;;;;54.65;24.08;;;1.50;99.90;;;;;;5054083;28;20079;-85
2022/04/09 03:42:40;;;;;;;51.15;24.67;;;1.60;99.90;;;;;;5052891;28;20124;-84
2022/04/09 03:45:08;;;;;;;48.33;23.67;;;1.60;99.90;;;;;;5052868;28;20087;-84
2022/04/09 03:47:35;;;;;;;50.67;23.65;;;1.60;99.90;;;;;;5054085;28;20088;-84
2022/04/09 03:50:06;;;;;;;40.83;22.42;;;1.50;99.90;;;;;;5053803;28;20135;-84
2022/04/09 03:52:33;;;;;;;51.53;23.77;;;1.50;99.90;;;;;;5052804;28;20049;-84
2022/04/09 03:55:00;;;;;;;60.42;29.52;;;1.50;99.90;;;;;;5052199;28;20077;-84
2022/04/09 03:57:26;;;;;;;70.07;30.60;;;1.50;99.90;;;;;;5052731;28;20136;-85
2022/04/09 03:59:55;;;;;;;53.15;24.55;;;1.60;99.90;;;;;;5053595;28;20049;-84
2022/04/09 04:02:23;;;;;;;48.08;24.67;;;1.60;99.90;;;;;;5052538;28;20174;-84
2022/04/09 04:04:50;;;;;;;48.22;22.98;;;1.60;99.90;;;;;;5053475;28;20128;-84
2022/04/09 04:07:23;;;;;;;60.13;25.67;;;1.50;99.90;;;;;;5053476;28;20048;-85
2022/04/09 04:09:50;;;;;;;54.63;25.10;;;1.60;99.90;;;;;;5051089;28;20055;-84
2022/04/09 04:12:17;;;;;;;53.17;25.77;;;1.60;99.90;;;;;;5053506;28;20049;-84
2022/04/09 04:14:44;;;;;;;53.90;26.13;;;1.70;99.90;;;;;;5051919;28;20048;-84
2022/04/09 04:17:12;;;;;;;41.35;24.58;;;1.70;99.90;;;;;;5051900;28;20127;-84
2022/04/09 04:19:39;;;;;;;51.75;23.85;;;1.70;99.90;;;;;;5052207;28;20047;-84
2022/04/09 04:22:08;;;;;;;60.17;25.38;;;1.70;99.90;;;;;;5052118;28;20124;-85
2022/04/09 04:24:37;;;;;;;50.67;24.02;;;1.70;99.90;;;;;;5052184;28;20064;-84
2022/04/09 04:27:05;;;;;;;49.25;24.73;;;1.70;99.90;;;;;;5052091;28;20059;-85
2022/04/09 04:29:33;;;;;;;47.03;24.17;;;1.80;99.90;;;;;;5051893;28;20081;-84
2022/04/09 04:32:00;;;;;;;47.92;22.83;;;1.80;99.90;;;;;;5051792;28;20151;-85
2022/04/09 04:34:27;;;;;;;43.50;22.80;;;1.80;99.90;;;;;;5052910;28;20132;-84
2022/04/09 04:36:54;;;;;;;48.83;23.77;;;2.00;99.90;;;;;;5051917;28;20466;-84
2022/04/09 04:39:21;;;;;;;43.47;21.95;;;1.90;99.90;;;;;;5052044;28;20110;-85
2022/04/09 04:41:47;;;;;;;42.35;20.83;;;2.00;99.90;;;;;;5051572;28;20051;-84
2022/04/09 04:44:15;;;;;;;40.25;21.27;;;2.00;99.90;;;;;;5052662;28;20451;-84
2022/04/09 04:46:42;;;;;;;34.60;19.58;;;2.10;99.90;;;;;;5052881;28;20132;-84
2022/04/09 04:49:09;;;;;;;37.17;20.05;;;2.10;99.90;;;;;;5051343;28;20489;-84
2022/04/09 04:51:36;;;;;;;39.88;20.35;;;2.20;99.90;;;;;;5052762;28;20053;-84
2022/04/09 04:54:03;;;;;;;38.53;20.17;;;2.20;99.90;;;;;;5051404;28;20090;-84
2022/04/09 04:56:30;;;;;;;35.95;18.70;;;2.20;99.90;;;;;;5051439;28;20049;-84
2022/04/09 04:58:57;;;;;;;35.47;17.77;;;2.30;99.90;;;;;;5052286;28;20145;-84
2022/04/09 05:01:24;;;;;;;34.38;20.42;;;2.40;99.90;;;;;;5051563;28;20055;-84
2022/04/09 05:03:51;;;;;;;37.90;22.15;;;2.40;99.90;;;;;;5051360;28;20064;-84
2022/04/09 05:06:18;;;;;;;38.65;24.45;;;2.40;99.90;;;;;;5051041;28;20087;-84
2022/04/09 05:08:44;;;;;;;44.13;24.83;;;2.50;99.90;;;;;;5052512;28;20102;-84
2022/04/09 05:11:11;;;;;;;46.85;25.90;;;2.40;99.90;;;;;;5052113;28;20045;-83
2022/04/09 05:13:38;;;;;;;39.80;21.05;;;2.50;99.90;;;;;;5051015;28;20118;-84
2022/04/09 05:16:05;;;;;;;43.60;25.02;;;2.50;99.90;;;;;;5052372;28;20099;-84
2022/04/09 05:18:32;;;;;;;51.67;28.98;;;2.50;99.90;;;;;;5052291;28;20139;-84
2022/04/09 05:20:59;;;;;;;47.53;25.65;;;2.50;99.90;;;;;;5052196;28;20084;-84
2022/04/09 05:23:26;;;;;;;48.35;27.13;;;2.50;99.90;;;;;;5051183;28;20053;-83
2022/04/09 05:25:53;;;;;;;51.03;27.35;;;2.50;99.90;;;;;;5049479;28;20132;-83
2022/04/09 05:28:19;;;;;;;53.88;29.08;;;2.50;99.90;;;;;;5050612;28;20405;-83
2022/04/09 05:30:46;;;;;;;40.95;25.92;;;2.50;99.90;;;;;;5051105;28;20128;-84
2022/04/09 05:33:13;;;;;;;42.28;23.58;;;2.50;99.90;;;;;;5051011;28;20110;-84
2022/04/09 05:35:40;;;;;;;87.15;41.45;;;2.50;99.90;;;;;;5052279;28;20129;-84
2022/04/09 05:38:09;;;;;;;49.88;24.95;;;2.60;99.90;;;;;;5051847;28;20055;-84
2022/04/09 05:40:36;;;;;;;28.20;16.58;;;2.50;99.90;;;;;;5050748;28;20063;-84
2022/04/09 05:43:04;;;;;;;32.10;16.70;;;2.50;99.90;;;;;;5050953;28;20132;-84
2022/04/09 05:45:30;;;;;;;29.30;16.88;;;2.50;99.90;;;;;;5050834;28;20088;-84
2022/04/09 05:47:58;;;;;;;42.85;23.02;;;2.60;99.90;;;;;;5051936;28;20109;-84
2022/04/09 05:50:24;;;;;;;29.92;17.75;;;2.60;99.90;;;;;;5052068;28;20136;-84
2022/04/09 05:52:51;;;;;;;28.10;14.98;;;2.70;99.90;;;;;;5050424;28;20551;-84
2022/04/09 05:55:18;;;;;;;21.13;13.57;;;2.70;99.90;;;;;;5050173;28;20045;-84
2022/04/09 05:57:45;;;;;;;13.00;9.63;;;2.80;99.90;;;;;;5052143;28;20611;-85
2022/04/09 06:00:13;;;;;;;14.25;9.82;;;2.90;99.90;;;;;;5050793;28;20045;-84
2022/04/09 06:02:40;;;;;;;14.30;9.50;;;3.00;99.90;;;;;;5051997;28;20053;-85
2022/04/09 06:05:08;;;;;;;19.25;10.65;;;3.10;99.90;;;;;;5083730;28;20080;-85
2022/04/09 06:07:35;;;;;;;18.95;11.07;;;3.10;99.90;;;;;;5050493;28;20104;-85
2022/04/09 06:10:05;;;;;;;17.95;10.82;;;3.20;99.90;;;;;;5050543;28;20088;-85
2022/04/09 06:12:33;;;;;;;31.30;15.75;;;3.20;99.90;;;;;;5051766;28;20524;-85
2022/04/09 06:15:01;;;;;;;26.45;13.23;;;3.30;99.90;;;;;;5050580;28;20080;-84
2022/04/09 06:17:28;;;;;;;27.98;13.18;;;3.30;99.90;;;;;;5050862;28;20500;-84
2022/04/09 06:19:55;;;;;;;26.45;13.25;;;3.50;99.90;;;;;;5050664;28;20647;-85
2022/04/09 06:22:22;;;;;;;17.02;11.73;;;3.50;99.90;;;;;;5050624;28;20140;-85
2022/04/09 06:24:48;;;;;;;17.02;9.48;;;3.50;99.90;;;;;;5050437;28;20131;-85
2022/04/09 06:27:15;;;;;;;15.70;10.57;;;3.50;99.90;;;;;;5051783;28;20088;-85
2022/04/09 06:29:42;;;;;;;23.42;11.20;;;3.70;99.90;;;;;;5050582;28;20128;-85
2022/04/09 06:32:09;;;;;;;24.63;12.93;;;3.80;99.90;;;;;;5050499;28;20049;-85
2022/04/09 06:34:35;;;;;;;26.65;15.63;;;3.90;99.90;;;;;;5055091;28;20064;-85
2022/04/09 06:37:03;;;;;;;31.65;18.55;;;4.10;99.90;;;;;;5054158;28;20211;-84
2022/04/09 06:39:35;;;;;;;21.92;12.60;;;4.20;99.90;;;;;;5055539;28;20056;-85
2022/04/09 06:42:02;;;;;;;25.20;13.35;;;4.40;99.90;;;;;;5054241;28;20057;-85
2022/04/09 06:44:29;;;;;;;16.25;10.57;;;4.40;99.90;;;;;;5055123;28;20049;-85
2022/04/09 06:46:56;;;;;;;15.32;9.48;;;4.60;99.90;;;;;;5053855;28;20481;-85
2022/04/09 06:49:23;;;;;;;18.98;10.18;;;4.70;99.90;;;;;;5055283;28;20123;-85
2022/04/09 06:51:49;;;;;;;19.75;9.40;;;4.80;99.90;;;;;;5053821;28;20306;-85
2022/04/09 06:54:18;;;;;;;15.73;9.05;;;5.10;99.90;;;;;;5054788;28;20158;-85
2022/04/09 06:56:45;;;;;;;11.93;6.53;;;5.40;99.90;;;;;;5055390;28;20391;-85
2022/04/09 06:59:12;;;;;;;11.13;5.57;;;5.70;99.90;;;;;;5053603;28;20136;-85
2022/04/09 07:01:39;;;;;;;10.50;5.28;;;5.80;99.90;;;;;;5055017;28;20053;-85
2022/04/09 07:04:06;;;;;;;9.85;4.80;;;6.20;99.90;;;;;;5086675;28;20080;-85
2022/04/09 07:06:33;;;;;;;5.55;3.05;;;6.40;99.90;;;;;;5087027;28;20053;-85
2022/04/09 07:08:59;;;;;;;9.80;3.60;;;6.40;99.90;;;;;;5087286;28;20047;-85
2022/04/09 07:11:27;;;;;;;5.00;3.22;;;6.30;99.90;;;;;;5053515;28;20497;-85
2022/04/09 07:13:53;;;;;;;4.07;2.90;;;6.30;99.90;;;;;;5053545;28;20053;-85
2022/04/09 07:16:20;;;;;;;4.60;2.40;;;6.30;99.90;;;;;;5054503;28;20079;-84
2022/04/09 07:18:47;;;;;;;5.10;1.42;;;6.40;99.90;;;;;;5053958;28;20405;-85
2022/04/09 07:21:14;;;;;;;3.10;1.50;;;6.50;99.90;;;;;;5054384;28;20051;-85
2022/04/09 07:23:41;;;;;;;3.10;1.50;;;6.60;99.90;;;;;;5054404;28;20048;-85
2022/04/09 07:26:08;;;;;;;3.88;1.70;;;6.70;99.90;;;;;;5053754;28;20128;-85
2022/04/09 07:28:35;;;;;;;5.05;1.88;;;6.80;99.90;;;;;;5054243;28;20048;-85
2022/04/09 07:31:03;;;;;;;5.13;1.70;;;6.90;99.90;;;;;;5053064;28;20549;-85
2022/04/09 07:33:30;;;;;;;3.40;1.80;;;6.80;99.90;;;;;;5054033;28;20075;-85
2022/04/09 07:35:56;;;;;;;5.47;1.40;;;6.70;99.90;;;;;;5052657;28;20084;-85
2022/04/09 07:38:23;;;;;;;5.75;1.20;;;6.60;99.90;;;;;;5054406;28;20051;-85
2022/04/09 07:40:50;;;;;;;1.42;1.13;;;6.50;99.90;;;;;;5053858;28;20051;-85
2022/04/09 07:43:18;;;;;;;3.45;1.40;;;6.30;99.90;;;;;;5053980;28;20178;-85
2022/04/09 07:45:45;;;;;;;4.53;1.67;;;6.50;99.90;;;;;;5054047;28;20059;-85
2022/04/09 07:48:12;;;;;;;10.50;1.80;;;6.50;99.90;;;;;;5052686;28;20572;-85
2022/04/09 07:50:39;;;;;;;4.70;2.67;;;6.60;99.90;;;;;;5053979;28;20068;-84
2022/04/09 07:53:08;;;;;;;5.40;1.98;;;6.90;99.90;;;;;;5053873;28;20075;-85
2022/04/09 07:55:35;;;;;;;6.47;1.77;;;7.20;99.90;;;;;;5052234;28;20123;-86
2022/04/09 07:58:02;;;;;;;3.38;1.30;;;8.30;99.90;;;;;;5051185;28;20090;-85
2022/04/09 08:00:33;;;;;;;5.47;1.10;;;9.50;99.90;;;;;;5053836;28;20048;-84
2022/04/09 08:03:00;;;;;;;3.83;1.52;;;9.80;99.90;;;;;;5052622;28;20080;-87
2022/04/09 08:05:27;;;;;;;4.68;1.10;;;8.70;99.90;;;;;;5052395;28;20049;-85
2022/04/09 08:07:54;;;;;;;2.85;0.85;;;8.30;99.90;;;;;;5053684;28;20123;-86
2022/04/09 08:10:20;;;;;;;3.90;1.73;;;8.00;99.90;;;;;;5053291;28;20052;-85
2022/04/09 08:12:49;;;;;;;2.25;1.30;;;7.70;99.90;;;;;;5052256;28;20055;-86
2022/04/09 08:15:18;;;;;;;4.18;1.10;;;7.60;99.90;;;;;;5052171;28;20059;-86
2022/04/09 08:17:47;;;;;;;3.00;1.35;;;7.60;99.90;;;;;;5053630;28;20467;-85
2022/04/09 08:20:18;;;;;;;2.08;1.35;;;7.50;99.90;;;;;;5051996;28;20420;-85
2022/04/09 08:22:45;;;;;;;5.95;1.30;;;7.40;99.90;;;;;;5053171;28;20451;-85
2022/04/09 08:25:11;;;;;;;3.72;1.30;;;7.40;99.90;;;;;;5052655;28;20128;-85
2022/04/09 08:27:38;;;;;;;3.88;1.48;;;7.30;99.90;;;;;;5074366;28;20493;-86
2022/04/09 08:30:07;;;;;;;4.82;1.20;;;7.40;99.90;;;;;;5051201;28;20053;-85
2022/04/09 08:32:34;;;;;;;5.72;1.10;;;7.60;99.90;;;;;;5053479;28;20154;-85
2022/04/09 08:35:02;;;;;;;3.28;1.35;;;7.60;99.90;;;;;;5053387;28;20045;-86
2022/04/09 08:37:29;;;;;;;2.47;1.15;;;7.60;99.90;;;;;;5052712;28;20056;-86
2022/04/09 08:39:56;;;;;;;2.15;1.05;;;7.70;99.90;;;;;;5053478;28;20057;-86
2022/04/09 08:42:23;;;;;;;3.33;1.45;;;7.80;99.90;;;;;;5051966;28;20075;-86
2022/04/09 08:44:50;;;;;;;4.03;1.75;;;7.80;99.90;;;;;;5052042;28;20049;-86
2022/04/09 08:47:17;;;;;;;3.67;1.40;;;8.20;99.90;;;;;;5052147;28;20122;-86
2022/04/09 08:49:46;;;;;;;4.57;2.60;;;8.60;99.90;;;;;;5053143;28;20080;-85
2022/04/09 08:52:14;;;;;;;4.45;1.52;;;9.60;99.90;;;;;;5051785;28;20049;-86
2022/04/09 08:54:42;;;;;;;2.45;1.10;;;11.70;99.90;;;;;;5051834;28;20064;-86
2022/04/09 08:57:10;;;;;;;3.25;0.88;;;11.80;99.90;;;;;;5051889;28;20327;-84
2022/04/09 08:59:37;;;;;;;2.72;1.42;;;11.50;99.90;;;;;;5051396;28;20140;-85
2022/04/09 09:02:04;;;;;;;3.90;1.30;;;11.00;99.90;;;;;;5051480;28;20559;-85
2022/04/09 09:04:31;;;;;;;2.85;0.90;;;10.50;99.90;;;;;;5051217;28;20093;-85
2022/04/09 09:07:18;;;;;;;2.80;1.00;;;10.10;99.90;;;;;;5050695;28;20060;-86
2022/04/09 09:09:44;;;;;;;5.35;1.15;;;9.60;99.90;;;;;;5068031;28;20085;-87
2022/04/09 09:12:12;;;;;;;5.28;1.10;;;9.00;99.90;;;;;;5052955;28;20135;-87
2022/04/09 09:14:46;;;;;;;6.40;1.25;;;8.90;99.90;;;;;;5052564;28;20049;-87
2022/04/09 09:17:12;;;;;;;4.18;1.42;;;9.10;99.90;;;;;;5051539;28;20049;-86
2022/04/09 09:19:47;;;;;;;1.55;0.80;;;9.20;99.90;;;;;;5051415;28;20132;-86
2022/04/09 09:22:15;;;;;;;1.05;0.90;;;8.60;99.90;;;;;;5051639;28;20458;-85
2022/04/09 09:24:42;;;;;;;2.22;1.00;;;8.30;99.90;;;;;;5051811;28;20130;-87
2022/04/09 09:27:09;;;;;;;4.40;1.23;;;8.00;99.90;;;;;;5052624;28;20049;-85
2022/04/09 09:29:36;;;;;;;2.47;1.02;;;7.60;99.90;;;;;;5052744;28;20068;-87
2022/04/09 09:32:05;;;;;;;2.08;1.42;;;7.30;99.90;;;;;;5052523;28;20102;-87
2022/04/09 09:34:33;;;;;;;3.80;1.50;;;7.10;99.90;;;;;;5051389;28;20067;-87
2022/04/09 09:37:00;;;;;;;2.42;1.40;;;6.90;99.90;;;;;;5051587;28;20055;-87
2022/04/09 09:39:27;;;;;;;1.50;1.40;;;6.70;99.90;;;;;;5051715;28;20126;-86
2022/04/09 09:42:04;;;;;;;3.90;1.67;;;6.80;99.90;;;;;;5052218;28;20501;-85
2022/04/09 09:44:41;;;;;;;3.13;1.77;;;7.00;99.90;;;;;;5051435;28;20045;-86
2022/04/09 09:47:09;;;;;;;4.40;1.65;;;7.00;99.90;;;;;;5051120;28;20132;-86
2022/04/09 09:49:53;;;;;;;3.08;1.50;;;6.80;99.90;;;;;;5051272;28;20053;-86
2022/04/09 09:52:34;;;;;;;4.07;2.00;;;6.60;99.90;;;;;;5052250;28;20045;-86
2022/04/09 09:55:13;;;;;;;4.50;2.40;;;6.60;99.90;;;;;;5051962;28;20135;-86
2022/04/09 09:57:41;;;;;;;2.72;1.70;;;7.00;99.90;;;;;;5052056;28;20132;-85
2022/04/09 10:00:13;;;;;;;1.52;1.05;;;8.50;99.90;;;;;;5050890;28;20053;-85
2022/04/09 10:02:40;;;;;;;3.05;1.40;;;10.30;99.90;;;;;;5051069;28;20049;-87
2022/04/09 10:05:08;;;;;;;2.45;1.20;;;11.80;99.90;;;;;;5051105;28;20087;-87
2022/04/09 10:07:36;;;;;;;1.92;1.15;;;11.50;99.90;;;;;;5051994;28;20148;-87
2022/04/09 10:10:05;;;;;;;3.08;1.45;;;11.30;99.90;;;;;;5056192;28;20049;-86
2022/04/09 10:12:39;;;;;;;1.27;1.17;;;10.70;99.90;;;;;;5055167;28;20071;-87
2022/04/09 10:15:08;;;;;;;3.22;1.42;;;10.10;99.90;;;;;;5055029;28;20307;-86
2022/04/09 10:17:37;;;;;;;2.00;1.80;;;9.20;99.90;;;;;;5055117;28;20085;-86
2022/04/09 10:20:04;;;;;;;2.20;1.40;;;8.30;99.90;;;;;;5055170;28;20132;-87
2022/04/09 10:22:37;;;;;;;3.67;1.35;;;7.90;99.90;;;;;;5055084;28;20071;-87
2022/04/09 10:25:05;;;;;;;4.32;1.70;;;7.50;99.90;;;;;;5054923;28;20107;-87
2022/04/09 10:27:53;;;;;;;5.22;1.92;;;7.30;99.90;;;;;;5056049;28;20049;-86
2022/04/09 10:30:21;;;;;;;2.80;1.90;;;6.90;99.90;;;;;;5055505;28;20140;-86
2022/04/09 10:32:51;;;;;;;3.67;1.80;;;6.60;99.90;;;;;;5055580;28;20473;-86
2022/04/09 10:35:29;;;;;;;4.45;2.00;;;6.50;99.90;;;;;;5054228;28;20052;-85
2022/04/09 10:38:08;;;;;;;3.70;1.55;;;7.00;99.90;;;;;;5055319;28;20497;-86
2022/04/09 10:40:37;;;;;;;2.13;1.05;;;9.50;99.90;;;;;;5055369;28;20481;-85
2022/04/09 10:43:05;;;;;;;4.00;1.20;;;12.30;99.90;;;;;;5053722;28;20040;-86
2022/04/09 10:45:34;;;;;;;2.63;1.05;;;12.60;99.90;;;;;;5053423;28;20509;-86
2022/04/09 10:48:11;;;;;;;2.50;1.83;;;13.50;99.90;;;;;;5055193;28;20489;-83
2022/04/09 10:50:57;;;;;;;3.47;1.70;;;15.40;99.90;;;;;;5054126;28;20102;-84
2022/04/09 10:53:29;;;;;;;3.38;1.17;;;15.40;95.80;;;;;;5055203;28;20056;-86
2022/04/09 10:56:17;;;;;;;4.07;1.38;;;15.10;87.40;;;;;;5055292;28;20049;-85
2022/04/09 10:59:09;;;;;;;2.70;0.90;;;15.50;91.40;;;;;;5054304;28;20094;-85
2022/04/09 11:01:51;;;;;;;1.95;0.70;;;15.30;90.00;;;;;;5055542;28;20088;-85
2022/04/09 11:07:05;;;;;;;1.95;0.90;;;16.70;84.60;;;;;;5055383;28;20132;-87
2022/04/09 11:09:44;;;;;;;2.55;0.90;;;14.80;82.10;;;;;;5054424;28;20505;-88
2022/04/09 11:12:12;;;;;;;2.55;1.05;;;13.10;89.20;;;;;;5054183;28;20051;-88
2022/04/09 11:14:48;;;;;;;1.25;1.00;;;11.80;93.20;;;;;;5054803;28;20140;-88
2022/04/09 11:17:15;;;;;;;1.10;0.68;;;10.80;99.90;;;;;;5054116;28;20055;-87
2022/04/09 11:19:43;;;;;;;1.70;0.70;;;11.70;99.90;;;;;;5053888;28;20053;-87
2022/04/09 11:22:16;;;;;;;2.65;0.70;;;13.20;99.90;;;;;;5055431;28;20508;-88
2022/04/09 11:24:43;;;;;;;2.05;0.57;;;14.10;96.50;;;;;;5054224;28;20052;-87
2022/04/09 11:27:10;;;;;;;1.55;1.05;;;13.90;94.20;;;;;;5053951;28;20049;-87
2022/04/09 11:29:40;;;;;;;1.63;0.60;;;14.10;94.90;;;;;;5056070;28;20080;-87
2022/04/09 11:32:17;;;;;;;2.03;0.90;;;15.30;94.00;;;;;;5054146;28;20049;-86
2022/04/09 11:34:53;;;;;;;1.35;0.75;;;16.10;87.80;;;;;;5053955;28;20421;-89
2022/04/09 11:37:21;;;;;;;1.42;0.80;;;16.20;85.50;;;;;;5053996;28;20164;-86
2022/04/09 11:39:49;;;;;;;0.90;0.60;;;16.60;85.10;;;;;;5053770;28;20063;-85
2022/04/09 11:42:16;;;;;;;1.27;0.60;;;15.90;79.70;;;;;;5055025;28;20416;-89
2022/04/09 11:44:49;;;;;;;1.90;0.82;;;14.70;82.10;;;;;;5054711;28;20057;-90
2022/04/09 11:47:23;;;;;;;1.38;0.70;;;14.00;82.80;;;;;;5054774;28;20573;-89
2022/04/09 11:49:52;;;;;;;1.95;1.02;;;13.60;86.00;;;;;;5054895;28;20088;-89
2022/04/09 11:52:29;;;;;;;3.13;0.88;;;13.00;88.20;;;;;;5053864;28;20072;-88
2022/04/09 11:54:59;;;;;;;0.80;0.32;;;11.70;90.50;;;;;;5053274;28;20052;-86
2022/04/09 11:57:26;;;;;;;1.27;0.70;;;10.40;96.50;;;;;;5053666;28;20049;-89
2022/04/09 11:59:54;;;;;;;0.60;0.60;;;9.40;99.90;;;;;;5053787;28;20135;-88
2022/04/09 12:02:27;;;;;;;2.85;0.77;;;8.30;99.90;;;;;;5054053;28;20132;-90
2022/04/09 12:04:55;;;;;;;1.20;0.60;;;7.60;99.90;;;;;;5054242;28;20132;-87
2022/04/09 12:07:25;;;;;;;1.27;0.70;;;7.40;99.90;;;;;;5052099;28;20076;-87
2022/04/09 12:09:54;;;;;;;1.02;0.57;;;7.90;99.90;;;;;;5051734;28;20044;-86
2022/04/09 12:12:22;;;;;;;2.45;0.60;;;9.00;99.90;;;;;;5053404;28;20552;-86
2022/04/09 12:14:57;;;;;;;2.85;0.57;;;10.40;99.90;;;;;;5052707;28;20064;-87
2022/04/09 12:17:32;;;;;;;4.47;0.85;;;11.20;99.90;;;;;;5053704;28;20063;-86
2022/04/09 12:20:00;;;;;;;1.48;0.60;;;11.90;99.90;;;;;;5053837;28;20474;-87
2022/04/09 12:22:27;;;;;;;0.65;0.65;;;12.10;99.90;;;;;;5051896;28;20064;-87
2022/04/09 12:24:58;;;;;;;2.45;0.75;;;12.40;99.90;;;;;;5053045;28;20536;-88
2022/04/09 12:27:45;;;;;;;1.30;0.75;;;12.20;99.40;;;;;;5053316;28;20049;-87
2022/04/09 12:30:13;;;;;;;2.10;0.80;;;12.60;99.90;;;;;;5053976;28;20091;-87
2022/04/09 12:32:41;;;;;;;2.22;1.08;;;12.60;99.90;;;;;;5051559;28;20556;-87
2022/04/09 12:35:12;;;;;;;1.30;0.60;;;13.30;99.90;;;;;;5053220;28;20045;-88
2022/04/09 12:37:52;;;;;;;1.35;0.65;;;13.40;96.10;;;;;;5052931;28;20076;-88
2022/04/09 12:40:26;;;;;;;1.40;0.68;;;13.50;95.30;;;;;;5054433;28;20160;-86
2022/04/09 12:42:52;;;;;;;3.63;0.82;;;13.70;94.00;;;;;;5052686;28;20084;-88
2022/04/09 12:45:23;;;;;;;4.28;0.60;;;14.20;95.90;;;;;;5053738;28;20123;-87
2022/04/09 12:48:01;;;;;;;1.92;0.80;;;13.80;91.60;;;;;;5052870;28;20052;-89
2022/04/09 12:50:34;;;;;;;4.05;0.82;;;14.10;92.70;;;;;;5053278;28;20124;-88
2022/04/09 12:53:04;;;;;;;1.25;0.90;;;14.00;91.80;;;;;;5052699;28;20071;-91
2022/04/09 12:55:32;;;;;;;1.13;0.90;;;13.50;91.10;;;;;;5052185;28;20041;-90
2022/04/09 12:58:01;;;;;;;3.55;1.17;;;12.60;90.20;;;;;;5052722;28;20049;-88